createdAt,value
2018-03-20T00:02:22.702Z,2.97
2018-03-20T00:04:50.331Z,3.20
2018-03-20T00:07:18.203Z,3.37
2018-03-20T00:09:45.788Z,3.07
2018-03-20T00:12:13.348Z,3.17
2018-03-20T00:14:42.200Z,2.70
2018-03-20T00:17:09.836Z,3.60
2018-03-20T00:19:37.396Z,2.77
2018-03-20T00:22:05.116Z,1.87
2018-03-20T00:24:32.769Z,1.70
2018-03-20T00:27:00.337Z,2.03
2018-03-20T00:29:27.961Z,2.03
2018-03-20T00:31:55.598Z,2.20
2018-03-20T00:34:23.181Z,2.33
2018-03-20T00:36:50.982Z,2.07
2018-03-20T00:39:18.562Z,2.97
2018-03-20T00:41:46.141Z,2.10
2018-03-20T00:44:13.984Z,2.40
2018-03-20T00:46:41.556Z,3.67
2018-03-20T00:49:09.135Z,2.50
2018-03-20T00:51:38.083Z,2.53
2018-03-20T00:54:05.681Z,2.17
2018-03-20T00:56:33.279Z,1.83
2018-03-20T00:59:00.919Z,2.30
2018-03-20T01:01:28.507Z,2.50
2018-03-20T01:03:56.082Z,2.30
2018-03-20T01:06:23.721Z,1.90
2018-03-20T01:08:51.285Z,2.67
2018-03-20T01:11:19.003Z,3.07
2018-03-20T01:13:46.623Z,2.77
2018-03-20T01:16:14.204Z,2.00
2018-03-20T01:18:41.774Z,2.30
2018-03-20T01:21:09.606Z,3.53
2018-03-20T01:23:37.293Z,1.80
2018-03-20T01:26:04.866Z,2.23
2018-03-20T01:28:32.711Z,2.90
2018-03-20T01:31:00.280Z,2.67
2018-03-20T01:33:27.868Z,2.10
2018-03-20T01:35:55.579Z,2.70
2018-03-20T01:38:23.214Z,2.70
2018-03-20T01:40:50.788Z,2.93
2018-03-20T01:43:18.469Z,2.77
2018-03-20T01:45:46.044Z,2.37
2018-03-20T01:48:13.829Z,2.00
2018-03-20T01:50:41.457Z,1.67
2018-03-20T01:53:19.003Z,3.00
2018-03-20T01:55:46.637Z,2.40
2018-03-20T01:58:14.205Z,2.17
2018-03-20T02:00:41.781Z,1.43
2018-03-20T02:03:09.629Z,2.57
2018-03-20T02:05:37.186Z,1.73
2018-03-20T02:08:04.793Z,1.57
2018-03-20T02:10:32.414Z,1.90
2018-03-20T02:13:00.285Z,1.40
2018-03-20T02:15:27.858Z,1.20
2018-03-20T02:17:55.494Z,1.33
2018-03-20T02:20:23.117Z,1.37
2018-03-20T02:22:50.688Z,0.87
2018-03-20T02:25:18.674Z,1.17
2018-03-20T02:27:46.249Z,1.63
2018-03-20T02:30:13.844Z,1.77
2018-03-20T02:32:41.514Z,1.13
2018-03-20T02:35:09.111Z,1.27
2018-03-20T02:37:36.681Z,1.03
2018-03-20T02:40:04.535Z,1.87
2018-03-20T02:42:32.112Z,1.20
2018-03-20T02:44:59.744Z,1.17
2018-03-20T02:47:27.385Z,1.33
2018-03-20T02:49:55.021Z,1.33
2018-03-20T02:52:23.381Z,1.43
2018-03-20T02:54:51.029Z,1.47
2018-03-20T02:57:18.617Z,1.60
2018-03-20T02:59:46.198Z,1.30
2018-03-20T03:02:14.118Z,1.50
2018-03-20T03:04:41.679Z,1.43
2018-03-20T03:07:09.244Z,1.50
2018-03-20T03:09:36.876Z,1.63
2018-03-20T03:12:04.497Z,1.63
2018-03-20T03:14:32.064Z,1.50
2018-03-20T03:16:59.868Z,1.70
2018-03-20T03:19:27.449Z,2.10
2018-03-20T03:21:55.025Z,2.00
2018-03-20T03:24:22.886Z,2.03
2018-03-20T03:26:50.600Z,1.90
2018-03-20T03:29:18.159Z,1.67
2018-03-20T03:31:45.787Z,2.07
2018-03-20T03:34:13.357Z,1.53
2018-03-20T03:36:40.924Z,2.17
2018-03-20T03:39:08.861Z,1.70
2018-03-20T03:41:36.430Z,1.53
2018-03-20T03:44:04.000Z,1.90
2018-03-20T03:46:31.614Z,1.87
2018-03-20T03:48:59.181Z,1.50
2018-03-20T03:51:26.781Z,1.83
2018-03-20T03:53:54.405Z,2.20
2018-03-20T03:56:22.021Z,1.90
2018-03-20T03:58:49.577Z,2.50
2018-03-20T04:01:17.271Z,2.07
2018-03-20T04:03:44.899Z,3.53
2018-03-20T04:06:12.477Z,2.27
2018-03-20T04:08:40.083Z,2.17
2018-03-20T04:11:07.685Z,2.17
2018-03-20T04:13:35.260Z,1.70
2018-03-20T04:16:02.893Z,1.93
2018-03-20T04:18:30.517Z,1.80
2018-03-20T04:20:58.768Z,1.97
2018-03-20T04:23:26.445Z,1.77
2018-03-20T04:25:54.051Z,2.53
2018-03-20T04:28:22.671Z,2.30
2018-03-20T04:30:50.511Z,1.80
2018-03-20T04:33:18.125Z,2.20
2018-03-20T04:35:45.680Z,2.40
2018-03-20T04:38:13.300Z,2.00
2018-03-20T04:40:42.934Z,2.07
2018-03-20T04:43:10.484Z,2.37
2018-03-20T04:45:38.120Z,3.87
2018-03-20T04:48:05.677Z,4.37
2018-03-20T04:50:33.301Z,4.53
2018-03-20T04:53:00.950Z,4.10
2018-03-20T04:55:28.516Z,1.90
2018-03-20T04:57:56.093Z,1.80
2018-03-20T05:00:23.704Z,2.40
2018-03-20T05:02:51.327Z,2.33
2018-03-20T05:05:18.910Z,3.20
2018-03-20T05:07:46.767Z,2.03
2018-03-20T05:10:14.337Z,1.67
2018-03-20T05:12:41.912Z,2.00
2018-03-20T05:15:09.652Z,2.03
2018-03-20T05:17:50.077Z,1.83
2018-03-20T05:20:18.585Z,1.70
2018-03-20T05:23:04.892Z,1.50
2018-03-20T05:25:32.536Z,2.20
2018-03-20T05:28:00.198Z,1.30
2018-03-20T05:30:27.927Z,1.67
2018-03-20T05:32:55.814Z,1.27
2018-03-20T05:35:23.488Z,1.77
2018-03-20T05:37:51.135Z,1.00
2018-03-20T05:40:19.904Z,0.73
2018-03-20T05:42:47.541Z,4.90
2018-03-20T05:45:15.182Z,6.93
2018-03-20T05:47:48.386Z,8.23
2018-03-20T05:50:20.563Z,6.30
2018-03-20T05:52:48.246Z,10.03
2018-03-20T05:55:15.813Z,8.13
2018-03-20T05:57:43.382Z,7.77
2018-03-20T06:00:11.000Z,11.77
2018-03-20T06:02:38.585Z,8.60
2018-03-20T06:05:06.157Z,7.87
2018-03-20T06:07:33.805Z,6.10
2018-03-20T06:10:01.366Z,7.73
2018-03-20T06:12:28.953Z,11.87
2018-03-20T06:14:56.573Z,12.50
2018-03-20T06:17:24.270Z,11.27
2018-03-20T06:19:51.873Z,13.93
2018-03-20T06:22:19.514Z,19.07
2018-03-20T06:24:47.090Z,11.70
2018-03-20T06:27:14.664Z,14.13
2018-03-20T06:29:42.296Z,16.23
2018-03-20T06:32:09.987Z,16.13
2018-03-20T06:34:37.759Z,16.03
2018-03-20T06:37:05.393Z,14.10
2018-03-20T06:39:32.976Z,10.67
2018-03-20T06:42:00.559Z,11.90
2018-03-20T06:44:28.497Z,9.77
2018-03-20T06:46:56.140Z,10.60
2018-03-20T06:49:23.770Z,8.40
2018-03-20T06:51:51.402Z,11.60
2018-03-20T06:54:18.973Z,9.70
2018-03-20T06:56:46.529Z,7.33
2018-03-20T06:59:14.174Z,11.23
2018-03-20T07:01:41.774Z,10.23
2018-03-20T07:04:09.401Z,6.03
2018-03-20T07:06:37.024Z,6.67
2018-03-20T07:09:04.685Z,9.63
2018-03-20T07:11:32.922Z,5.90
2018-03-20T07:14:00.534Z,7.10
2018-03-20T07:16:28.091Z,6.20
2018-03-20T07:18:55.722Z,9.20
2018-03-20T07:21:23.347Z,5.27
2018-03-20T07:23:50.943Z,7.63
2018-03-20T07:26:18.534Z,12.13
2018-03-20T07:28:46.433Z,10.00
2018-03-20T07:31:14.015Z,8.60
2018-03-20T07:33:41.865Z,7.93
2018-03-20T07:36:09.488Z,8.07
2018-03-20T07:38:37.078Z,7.30
2018-03-20T07:41:04.681Z,7.63
2018-03-20T07:43:32.305Z,7.50
2018-03-20T07:45:59.972Z,9.77
2018-03-20T07:48:27.668Z,14.23
2018-03-20T07:50:55.295Z,17.40
2018-03-20T07:53:22.890Z,13.87
2018-03-20T07:55:50.474Z,13.50
2018-03-20T07:58:18.398Z,11.33
2018-03-20T08:00:45.981Z,11.53
2018-03-20T08:03:13.557Z,13.80
2018-03-20T08:05:41.480Z,13.10
2018-03-20T08:08:09.112Z,16.13
2018-03-20T08:10:36.758Z,23.23
2018-03-20T08:13:04.480Z,34.80
2018-03-20T08:15:32.052Z,29.70
2018-03-20T08:17:59.631Z,30.57
2018-03-20T08:20:27.283Z,28.63
2018-03-20T08:22:54.872Z,22.37
2018-03-20T08:25:22.455Z,19.63
2018-03-20T08:27:50.095Z,16.60
2018-03-20T08:30:17.684Z,16.63
2018-03-20T08:32:45.354Z,17.47
2018-03-20T08:35:13.334Z,15.23
2018-03-20T08:37:40.908Z,14.23
2018-03-20T08:40:08.526Z,15.57
2018-03-20T08:42:36.422Z,15.43
2018-03-20T08:45:04.036Z,13.40
2018-03-20T08:47:31.615Z,15.03
2018-03-20T08:49:59.268Z,14.83
2018-03-20T08:52:26.875Z,24.80
2018-03-20T08:54:54.456Z,12.67
2018-03-20T08:57:22.129Z,14.63
2018-03-20T08:59:49.771Z,14.40
2018-03-20T09:02:17.845Z,12.40
2018-03-20T09:04:45.539Z,15.70
2018-03-20T09:07:13.113Z,11.00
2018-03-20T09:09:40.703Z,16.83
2018-03-20T09:12:08.335Z,15.77
2018-03-20T09:14:35.927Z,15.57
2018-03-20T09:17:03.517Z,14.13
2018-03-20T09:19:31.262Z,11.30
2018-03-20T09:21:58.830Z,13.33
2018-03-20T09:24:26.406Z,7.90
2018-03-20T09:26:54.033Z,6.50
2018-03-20T09:29:21.595Z,5.57
2018-03-20T09:31:49.168Z,7.50
2018-03-20T09:34:16.870Z,8.00
2018-03-20T09:36:44.792Z,8.63
2018-03-20T09:39:12.444Z,8.67
2018-03-20T09:41:40.323Z,7.93
2018-03-20T09:44:07.888Z,8.07
2018-03-20T09:46:35.455Z,8.60
2018-03-20T09:49:03.210Z,7.77
2018-03-20T09:51:30.750Z,7.30
2018-03-20T09:53:58.359Z,6.43
2018-03-20T09:56:26.204Z,6.07
2018-03-20T09:58:53.788Z,8.80
2018-03-20T10:01:21.371Z,13.57
2018-03-20T10:03:49.005Z,6.90
2018-03-20T10:06:16.609Z,7.10
2018-03-20T10:08:44.203Z,6.87
2018-03-20T10:11:11.832Z,7.30
2018-03-20T10:13:39.399Z,8.13
2018-03-20T10:16:06.972Z,7.90
2018-03-20T10:18:34.619Z,8.10
2018-03-20T10:21:02.200Z,7.70
2018-03-20T10:23:29.799Z,10.93
2018-03-20T10:25:57.686Z,7.43
2018-03-20T10:28:25.247Z,8.70
2018-03-20T10:30:52.822Z,6.70
2018-03-20T10:33:20.484Z,8.43
2018-03-20T10:35:48.122Z,7.60
2018-03-20T10:38:15.762Z,9.00
2018-03-20T10:40:43.404Z,7.93
2018-03-20T10:43:10.974Z,7.60
2018-03-20T10:45:38.544Z,6.83
2018-03-20T10:48:06.183Z,7.57
2018-03-20T10:50:33.766Z,7.50
2018-03-20T10:53:01.426Z,8.37
2018-03-20T10:55:29.137Z,9.13
2018-03-20T10:57:56.709Z,6.40
2018-03-20T11:00:34.228Z,7.07
2018-03-20T11:03:07.418Z,7.83
2018-03-20T11:05:35.037Z,7.70
2018-03-20T11:08:02.618Z,6.90
2018-03-20T11:10:30.245Z,6.47
2018-03-20T11:12:57.894Z,7.20
2018-03-20T11:15:25.535Z,6.10
2018-03-20T11:17:53.163Z,6.70
2018-03-20T11:20:20.780Z,7.07
2018-03-20T11:22:48.367Z,8.60
2018-03-20T11:25:15.945Z,6.10
2018-03-20T11:27:43.823Z,6.53
2018-03-20T11:30:11.467Z,6.17
2018-03-20T11:32:39.028Z,5.63
2018-03-20T11:35:06.980Z,6.40
2018-03-20T11:37:35.430Z,6.83
2018-03-20T11:40:03.115Z,6.80
2018-03-20T11:42:30.736Z,6.40
2018-03-20T11:44:58.300Z,5.83
2018-03-20T11:47:25.873Z,6.57
2018-03-20T11:49:53.521Z,5.60
2018-03-20T11:52:21.088Z,9.90
2018-03-20T11:54:48.653Z,10.57
2018-03-20T11:57:16.290Z,6.20
2018-03-20T11:59:43.856Z,8.87
2018-03-20T12:02:11.478Z,6.20
2018-03-20T12:04:39.389Z,5.80
2018-03-20T12:07:06.966Z,5.80
2018-03-20T12:09:50.564Z,5.80
2018-03-20T12:12:18.146Z,7.67
2018-03-20T12:14:45.730Z,6.77
2018-03-20T12:17:13.351Z,5.20
2018-03-20T12:19:40.929Z,6.07
2018-03-20T12:22:09.172Z,5.00
2018-03-20T12:24:36.805Z,6.60
2018-03-20T12:27:04.385Z,6.27
2018-03-20T12:29:31.954Z,6.93
2018-03-20T12:32:00.054Z,9.50
2018-03-20T12:37:15.755Z,10.60
2018-03-20T12:39:43.426Z,11.27
2018-03-20T12:42:11.167Z,9.30
2018-03-20T12:44:38.814Z,13.63
2018-03-20T12:47:06.387Z,9.17
2018-03-20T12:49:33.990Z,11.40
2018-03-20T12:52:01.968Z,10.80
2018-03-20T12:54:29.579Z,12.00
2018-03-20T12:56:57.180Z,8.83
2018-03-20T12:59:24.802Z,11.03
2018-03-20T13:01:52.392Z,15.50
2018-03-20T13:04:19.972Z,12.20
2018-03-20T13:06:47.662Z,11.20
2018-03-20T13:09:15.247Z,16.03
2018-03-20T13:11:42.832Z,13.87
2018-03-20T13:14:10.477Z,12.70
2018-03-20T13:16:38.118Z,11.33
2018-03-20T13:19:06.298Z,10.70
2018-03-20T13:21:33.963Z,10.80
2018-03-20T13:24:01.602Z,11.97
2018-03-20T13:26:29.163Z,9.13
2018-03-20T13:28:57.102Z,11.73
2018-03-20T13:31:24.678Z,9.50
2018-03-20T13:33:52.266Z,9.10
2018-03-20T13:36:19.905Z,10.33
2018-03-20T13:38:47.551Z,9.20
2018-03-20T13:41:15.530Z,8.97
2018-03-20T13:43:43.315Z,9.73
2018-03-20T13:46:10.888Z,8.50
2018-03-20T13:48:38.466Z,9.93
2018-03-20T13:51:06.097Z,11.97
2018-03-20T13:53:33.683Z,12.20
2018-03-20T13:56:01.351Z,14.00
2018-03-20T13:58:29.245Z,11.27
2018-03-20T14:00:56.856Z,9.10
2018-03-20T14:03:24.428Z,11.40
2018-03-20T14:05:52.120Z,10.00
2018-03-20T14:08:19.910Z,11.13
2018-03-20T14:10:47.490Z,9.93
2018-03-20T14:13:15.132Z,12.10
2018-03-20T14:15:42.708Z,11.40
2018-03-20T14:18:10.333Z,12.10
2018-03-20T14:20:38.960Z,13.33
2018-03-20T14:23:06.524Z,13.90
2018-03-20T14:25:34.114Z,9.50
2018-03-20T14:28:02.011Z,9.23
2018-03-20T14:30:31.266Z,8.43
2018-03-20T14:32:58.861Z,8.07
2018-03-20T14:35:26.485Z,7.60
2018-03-20T14:37:54.074Z,11.43
2018-03-20T14:40:21.681Z,14.47
2018-03-20T14:42:49.335Z,8.53
2018-03-20T14:45:17.201Z,7.97
2018-03-20T14:47:44.837Z,7.40
2018-03-20T14:50:12.470Z,8.47
2018-03-20T14:52:40.069Z,10.50
2018-03-20T14:55:07.632Z,8.57
2018-03-20T14:57:35.284Z,8.10
2018-03-20T15:00:02.976Z,6.53
2018-03-20T15:02:30.569Z,13.10
2018-03-20T15:04:58.403Z,6.70
2018-03-20T15:07:25.981Z,7.10
2018-03-20T15:09:53.579Z,6.93
2018-03-20T15:12:21.442Z,8.43
2018-03-20T15:14:49.024Z,9.40
2018-03-20T15:17:16.615Z,7.40
2018-03-20T15:19:44.246Z,7.10
2018-03-20T15:22:11.847Z,14.00
2018-03-20T15:24:39.483Z,11.33
2018-03-20T15:27:07.153Z,7.83
2018-03-20T15:29:34.826Z,13.90
2018-03-20T15:32:02.417Z,7.97
2018-03-20T15:34:30.067Z,10.47
2018-03-20T15:36:57.662Z,8.20
2018-03-20T15:39:25.254Z,11.70
2018-03-20T15:41:53.162Z,11.47
2018-03-20T15:44:20.757Z,16.03
2018-03-20T15:46:48.485Z,11.50
2018-03-20T15:49:16.182Z,8.60
2018-03-20T15:51:43.770Z,8.87
2018-03-20T15:54:11.355Z,8.97
2018-03-20T15:56:39.241Z,13.07
2018-03-20T15:59:06.917Z,11.30
2018-03-20T16:01:34.658Z,12.03
2018-03-20T16:04:02.297Z,12.50
2018-03-20T16:06:29.881Z,10.83
2018-03-20T16:08:57.502Z,13.67
2018-03-20T16:11:25.682Z,10.53
2018-03-20T16:13:53.285Z,10.90
2018-03-20T16:16:20.873Z,16.70
2018-03-20T16:18:48.542Z,16.03
2018-03-20T16:21:16.211Z,19.93
2018-03-20T16:23:44.135Z,17.27
2018-03-20T16:26:12.043Z,19.03
2018-03-20T16:28:40.502Z,19.70
2018-03-20T16:31:08.403Z,16.67
2018-03-20T16:33:36.253Z,19.73
2018-03-20T16:36:04.094Z,23.37
2018-03-20T16:38:31.944Z,15.57
2018-03-20T16:40:59.908Z,19.10
2018-03-20T16:43:27.777Z,16.57
2018-03-20T16:45:56.423Z,19.63
2018-03-20T16:48:24.417Z,32.37
2018-03-20T16:50:52.249Z,23.20
2018-03-20T16:53:20.033Z,15.23
2018-03-20T16:55:47.095Z,13.80
2018-03-20T16:58:14.997Z,22.63
2018-03-20T17:00:42.994Z,27.93
2018-03-20T17:03:11.054Z,31.57
2018-03-20T17:05:38.882Z,34.53
2018-03-20T17:08:06.700Z,135.70
2018-03-20T17:10:34.781Z,105.80
2018-03-20T17:13:02.679Z,63.43
2018-03-20T17:15:30.530Z,51.20
2018-03-20T17:17:58.379Z,56.20
2018-03-20T17:20:26.262Z,53.57
2018-03-20T17:22:54.137Z,53.27
2018-03-20T17:25:22.086Z,48.27
2018-03-20T17:27:49.967Z,44.57
2018-03-20T17:30:17.776Z,42.37
2018-03-20T17:32:45.594Z,39.47
2018-03-20T17:35:13.525Z,38.10
2018-03-20T17:37:41.451Z,44.17
2018-03-20T17:40:09.633Z,43.67
2018-03-20T17:42:37.545Z,37.87
2018-03-20T17:45:05.458Z,36.43
2018-03-20T17:47:33.426Z,39.37
2018-03-20T17:50:01.328Z,36.23
2018-03-20T17:52:29.207Z,33.13
2018-03-20T17:54:57.166Z,30.10
2018-03-20T17:57:25.019Z,29.00
2018-03-20T17:59:52.886Z,32.37
2018-03-20T18:02:20.807Z,25.13
2018-03-20T18:04:48.691Z,33.13
2018-03-20T18:07:16.572Z,26.73
2018-03-20T18:09:44.520Z,27.23
2018-03-20T18:12:12.410Z,23.13
2018-03-20T18:14:41.031Z,23.53
2018-03-20T18:17:08.956Z,33.50
2018-03-20T18:19:36.907Z,57.37
2018-03-20T18:22:04.841Z,36.07
2018-03-20T18:24:33.677Z,24.90
2018-03-20T18:27:01.556Z,21.43
2018-03-20T18:29:29.437Z,18.17
2018-03-20T18:31:57.359Z,18.23
2018-03-20T18:34:25.340Z,17.20
2018-03-20T18:36:53.231Z,16.50
2018-03-20T18:39:21.412Z,13.97
2018-03-20T18:41:49.363Z,10.67
2018-03-20T18:44:17.217Z,10.30
2018-03-20T18:46:45.206Z,10.37
2018-03-20T18:49:13.081Z,11.47
2018-03-20T18:51:41.392Z,12.17
2018-03-20T18:54:09.273Z,9.43
2018-03-20T18:56:37.158Z,10.33
2018-03-20T18:59:05.038Z,11.20
2018-03-20T19:01:32.935Z,14.90
2018-03-20T19:04:00.761Z,23.50
2018-03-20T19:06:28.601Z,32.33
2018-03-20T19:08:56.934Z,23.93
2018-03-20T19:11:24.787Z,16.13
2018-03-20T19:13:52.594Z,12.93
2018-03-20T19:16:20.511Z,15.43
2018-03-20T19:18:48.397Z,15.43
2018-03-20T19:21:16.270Z,16.10
2018-03-20T19:23:44.167Z,16.83
2018-03-20T19:26:12.021Z,14.30
2018-03-20T19:28:40.311Z,16.23
2018-03-20T19:31:08.171Z,15.03
2018-03-20T19:33:36.045Z,17.40
2018-03-20T19:36:03.935Z,18.90
2018-03-20T19:38:31.877Z,18.57
2018-03-20T19:41:00.738Z,17.03
2018-03-20T19:43:28.641Z,17.00
2018-03-20T19:45:57.667Z,18.53
2018-03-20T19:48:25.949Z,64.50
2018-03-20T19:50:53.844Z,25.70
2018-03-20T19:53:21.971Z,23.30
2018-03-20T19:55:49.853Z,20.23
2018-03-20T19:58:17.822Z,21.83
2018-03-20T20:00:45.745Z,30.13
2018-03-20T20:03:13.652Z,28.33
2018-03-20T20:05:41.486Z,29.33
2018-03-20T20:08:09.407Z,22.70
2018-03-20T20:10:37.363Z,19.83
2018-03-20T20:13:06.177Z,20.43
2018-03-20T20:15:34.073Z,18.40
2018-03-20T20:18:01.894Z,22.33
2018-03-20T20:20:29.814Z,18.97
2018-03-20T20:22:58.012Z,18.00
2018-03-20T20:25:25.842Z,18.50
2018-03-20T20:27:53.663Z,18.07
2018-03-20T20:30:22.580Z,18.13
2018-03-20T20:32:50.485Z,17.83
2018-03-20T20:35:18.383Z,16.27
2018-03-20T20:37:46.971Z,14.33
2018-03-20T20:40:14.778Z,14.00
2018-03-20T20:42:42.657Z,16.57
2018-03-20T20:45:10.506Z,21.20
2018-03-20T20:47:38.212Z,24.60
2018-03-20T20:50:05.918Z,22.90
2018-03-20T20:52:33.765Z,23.53
2018-03-20T20:55:01.484Z,19.70
2018-03-20T20:57:29.177Z,25.40
2018-03-20T20:59:56.979Z,15.63
2018-03-20T21:02:24.638Z,12.03
2018-03-20T21:04:52.224Z,11.93
2018-03-20T21:07:19.871Z,16.23
2018-03-20T21:09:47.445Z,15.00
2018-03-20T21:12:15.031Z,16.00
2018-03-20T21:14:42.918Z,14.53
2018-03-20T21:17:10.489Z,11.50
2018-03-20T21:19:38.064Z,9.93
2018-03-20T21:22:05.724Z,10.07
2018-03-20T21:24:33.298Z,10.20
2018-03-20T21:27:00.873Z,11.07
2018-03-20T21:29:28.790Z,14.20
2018-03-20T21:31:56.408Z,8.30
2018-03-20T21:34:24.089Z,10.40
2018-03-20T21:36:51.705Z,9.77
2018-03-20T21:39:19.351Z,8.73
2018-03-20T21:41:46.933Z,8.93
2018-03-20T21:44:14.753Z,8.93
2018-03-20T21:46:42.333Z,8.33
2018-03-20T21:49:09.933Z,9.73
2018-03-20T21:51:37.618Z,11.60
2018-03-20T21:54:05.317Z,10.40
2018-03-20T21:56:33.396Z,11.63
2018-03-20T21:59:01.124Z,13.23
2018-03-20T22:01:30.920Z,12.57
2018-03-20T22:03:58.532Z,11.03
2018-03-20T22:06:26.155Z,9.40
2018-03-20T22:08:53.738Z,9.37
2018-03-20T22:11:21.328Z,13.70
2018-03-20T22:13:48.971Z,10.67
2018-03-20T22:16:16.556Z,11.17
2018-03-20T22:18:44.707Z,15.17
2018-03-20T22:21:12.678Z,12.17
2018-03-20T22:23:40.261Z,12.80
2018-03-20T22:26:07.981Z,18.10
2018-03-20T22:28:35.679Z,15.13
2018-03-20T22:31:03.280Z,16.27
2018-03-20T22:33:30.858Z,19.20
2018-03-20T22:35:58.565Z,17.13
2018-03-20T22:38:26.136Z,17.10
2018-03-20T22:40:53.752Z,17.77
2018-03-20T22:43:21.594Z,21.27
2018-03-20T22:45:49.159Z,17.50
2018-03-20T22:48:16.797Z,18.00
2018-03-20T22:50:44.466Z,16.67
2018-03-20T22:53:12.055Z,14.43
2018-03-20T22:55:39.654Z,13.93
2018-03-20T22:58:08.614Z,13.83
2018-03-20T23:00:36.225Z,13.87
2018-03-20T23:03:03.876Z,14.17
2018-03-20T23:05:31.529Z,12.50
2018-03-20T23:07:59.166Z,13.63
2018-03-20T23:10:26.750Z,12.73
2018-03-20T23:12:54.602Z,12.63
2018-03-20T23:15:22.185Z,12.83
2018-03-20T23:17:49.765Z,13.03
2018-03-20T23:20:17.619Z,11.63
2018-03-20T23:22:45.255Z,13.93
2018-03-20T23:25:12.837Z,13.40
2018-03-20T23:27:40.464Z,12.57
2018-03-20T23:30:08.090Z,13.30
2018-03-20T23:32:35.706Z,13.83
2018-03-20T23:35:03.413Z,14.70
2018-03-20T23:37:31.014Z,14.07
2018-03-20T23:39:58.648Z,14.33
2018-03-20T23:42:26.298Z,14.40
2018-03-20T23:44:53.954Z,14.90
2018-03-20T23:47:21.600Z,16.10
2018-03-20T23:49:49.436Z,14.70
2018-03-20T23:52:17.272Z,13.10
2018-03-20T23:54:44.851Z,12.33
2018-03-20T23:57:12.697Z,13.73
2018-03-20T23:59:40.411Z,15.07
